Terminal Aerodrome Forecast
Issued by NWS

Home | Current Version | Previous Version | Text Only | Print | Product List | Glossary On
Versions: 1 2 3 4 5 6 7 8 9 10 11 12 13 14 15 16 17 18 19 20 21 22 23 24 25 26 27 28 29
000
FTAK31 PANC 012333
TAFAIL
TAF
PAIL 012333Z 0200/0224 22010G15KT P6SM VCSH FEW028 OVC035
     FM020200 24012G20KT P6SM VCSH SCT028 OVC035
     FM020400 24015G25KT P6SM -RA SCT012 OVC030
     FM021100 24012KT 3SM BR BKN005 OVC012
     FM021700 26008KT 5SM BR FEW005 BKN008 OVC020=

USA.gov is the U.S. government's official web portal to all federal, state and local government web resources and services.